Time;durP1;ratioP1;P1;durP2;ratioP2;P2;SDS_P1;SDS_P2;PMS_P1;PMS_P2;Temp;Humidity;BMP_temperature;BMP_pressure;BME280_temperature;BME280_humidity;BME280_pressure;Samples;Min_cycle;Max_cycle;Signal;HPM_P1;HPM_P2
2022/10/02 21:03:33;;;;;;;2.60;1.42;;;;;;;12.00;79.31;99229.59;5165536;27;20137;-66
2022/10/02 21:06:59;;;;;;;2.60;1.70;;;;;;;12.10;79.52;99232.53;5164586;27;20034;-66
2022/10/02 21:09:49;;;;;;;;;;;;;;;12.09;78.93;99233.47;5061552;28;20309;-66
2022/10/02 21:12:50;;;;;;;2.15;1.35;;;;;;;12.21;78.79;99218.59;5061691;28;19917;-67
2022/10/02 21:15:40;;;;;;;1.70;1.23;;;;;;;12.29;78.79;99230.44;5144294;27;20058;-67
2022/10/02 21:18:43;;;;;;;2.40;1.50;;;;;;;12.37;78.47;99227.28;5164128;27;20062;-67
2022/10/02 21:21:35;;;;;;;2.25;1.50;;;;;;;12.36;78.56;99218.44;5141007;27;20062;-67
2022/10/02 21:25:01;;;;;;;2.78;1.60;;;;;;;12.39;78.13;99226.22;5164177;27;20226;-67
2022/10/02 21:28:04;;;;;;;1.98;1.30;;;;;;;12.29;78.13;99203.84;5100936;28;20056;-67
2022/10/02 21:30:42;;;;;;;2.22;1.30;;;;;;;12.27;78.31;99200.44;5132192;27;20058;-67
2022/10/02 21:33:22;;;;;;;2.28;1.45;;;;;;;12.44;78.38;99236.56;5163817;27;20066;-67
2022/10/02 21:35:57;;;;;;;2.67;1.30;;;;;;;12.49;78.01;99248.59;5163480;27;20051;-67
2022/10/02 21:38:43;;;;;;;3.13;1.67;;;;;;;12.52;77.83;99239.56;5163589;27;20051;-67
2022/10/02 21:41:58;;;;;;;1.75;1.30;;;;;;;12.47;77.48;99229.25;5163553;27;20310;-67
2022/10/02 21:44:59;;;;;;;2.10;1.52;;;;;;;12.52;77.76;99242.22;5163969;27;20062;-67
2022/10/02 21:48:06;;;;;;;1.90;1.20;;;;;;;12.36;77.48;99221.09;5163648;27;20199;-67
2022/10/02 21:51:23;;;;;;;2.22;1.48;;;;;;;12.56;77.28;99240.22;5141640;27;20319;-67
2022/10/02 21:54:14;;;;;;;1.85;1.20;;;;;;;12.55;77.00;99241.19;5120832;27;20062;-67
2022/10/02 21:57:10;;;;;;;2.38;2.08;;;;;;;12.01;77.22;99162.22;5163426;27;20066;-69
2022/10/02 22:00:06;;;;;;;1.90;1.20;;;;;;;12.61;77.20;99230.16;5163425;27;20051;-66
2022/10/02 22:02:50;;;;;;;;;;;;;;;12.42;76.92;99233.16;5163293;27;20055;-66
2022/10/02 22:05:56;;;;;;;2.17;1.42;;;;;;;12.54;77.52;99235.00;5145105;27;19919;-68
2022/10/02 22:08:32;;;;;;;2.70;1.30;;;;;;;12.59;77.67;99240.03;5139850;27;20055;-65
2022/10/02 22:11:11;;;;;;;2.05;1.30;;;;;;;12.60;77.05;99229.28;5163210;27;20108;-65
2022/10/02 22:13:42;;;;;;;2.85;1.27;;;;;;;12.59;77.32;99242.69;5151725;27;20035;-67
2022/10/02 22:16:22;;;;;;;2.80;1.58;;;;;;;12.63;77.11;99230.91;5148803;27;20059;-66
2022/10/02 22:18:55;;;;;;;2.03;1.30;;;;;;;12.57;77.01;99239.28;5148985;27;20062;-67
2022/10/02 22:21:51;;;;;;;1.85;1.10;;;;;;;12.58;77.02;99239.19;5148394;27;20059;-67
2022/10/02 22:24:31;;;;;;;1.88;1.10;;;;;;;12.54;77.02;99234.16;5140790;27;20257;-66
2022/10/02 22:27:14;;;;;;;4.15;1.30;;;;;;;12.52;77.05;99239.56;5148396;27;20200;-66
2022/10/02 22:29:47;;;;;;;2.30;1.40;;;;;;;12.56;77.44;99242.88;5148712;27;20356;-65
2022/10/02 22:35:35;;;;;;;2.10;1.23;;;;;;;12.61;76.95;99240.78;5148838;27;20088;-67
2022/10/02 22:38:16;;;;;;;3.40;1.38;;;;;;;12.51;76.35;99243.19;5148701;27;20059;-66
2022/10/02 22:40:51;;;;;;;2.20;1.27;;;;;;;12.59;76.72;99245.34;5148308;27;20268;-65
2022/10/02 22:43:27;;;;;;;2.13;1.38;;;;;;;12.58;76.69;99248.97;5148674;27;20051;-65
2022/10/02 22:45:59;;;;;;;2.50;1.50;;;;;;;12.58;76.85;99255.13;5148133;27;20055;-66
2022/10/02 22:48:36;;;;;;;2.65;1.60;;;;;;;12.53;76.58;99251.91;5148306;27;20063;-66
2022/10/02 22:51:14;;;;;;;3.33;1.40;;;;;;;12.56;76.31;99250.88;5148317;27;20054;-65
2022/10/02 22:53:49;;;;;;;2.30;1.60;;;;;;;12.50;76.38;99250.31;5147971;27;20055;-66
2022/10/02 22:56:23;;;;;;;2.05;1.30;;;;;;;12.48;76.43;99256.69;5148189;27;20071;-67
2022/10/02 22:59:02;;;;;;;3.60;1.52;;;;;;;12.46;75.94;99255.91;5147988;27;20051;-65
2022/10/02 23:01:40;;;;;;;1.90;1.20;;;;;;;12.50;76.31;99245.00;5147726;27;20188;-66
2022/10/02 23:04:20;;;;;;;2.70;1.27;;;;;;;12.55;75.90;99244.69;5147808;27;20054;-67
2022/10/02 23:06:52;;;;;;;1.85;1.23;;;;;;;12.40;76.42;99219.09;5148084;27;20055;-67
2022/10/02 23:09:24;;;;;;;2.42;1.23;;;;;;;12.53;76.05;99243.94;5147716;27;20096;-68
2022/10/02 23:12:00;;;;;;;2.58;1.30;;;;;;;12.54;75.50;99248.31;5148248;27;20059;-65
2022/10/02 23:14:37;;;;;;;2.10;1.33;;;;;;;12.51;75.40;99260.00;5148029;27;20107;-65
2022/10/02 23:17:11;;;;;;;2.30;1.58;;;;;;;12.51;75.87;99259.13;5147565;27;20055;-65
2022/10/02 23:19:44;;;;;;;3.33;1.50;;;;;;;12.50;75.64;99260.94;5147985;27;20051;-70
2022/10/02 23:22:19;;;;;;;2.15;1.38;;;;;;;11.62;75.50;99122.25;5147839;27;20062;-65
2022/10/02 23:24:52;;;;;;;3.10;1.52;;;;;;;12.50;75.78;99258.28;5146762;27;20107;-66
2022/10/02 23:27:24;;;;;;;2.25;1.55;;;;;;;12.48;75.75;99270.81;5147732;27;20081;-67
2022/10/02 23:29:57;;;;;;;1.95;1.25;;;;;;;12.47;75.59;99270.91;5147734;27;20100;-67
2022/10/02 23:32:32;;;;;;;2.70;1.60;;;;;;;12.44;75.48;99269.31;5147439;27;20047;-66
2022/10/02 23:35:06;;;;;;;2.42;1.50;;;;;;;12.48;75.83;99267.31;5147321;27;20356;-65
2022/10/02 23:37:43;;;;;;;3.10;1.95;;;;;;;12.27;75.55;99250.94;5147802;27;20055;-65
2022/10/02 23:40:20;;;;;;;2.83;1.48;;;;;;;12.46;75.24;99272.72;5147870;27;20051;-65
2022/10/02 23:42:52;;;;;;;2.35;1.55;;;;;;;12.44;75.63;99273.78;5147180;27;20055;-65
2022/10/02 23:45:26;;;;;;;3.83;1.55;;;;;;;12.42;75.63;99268.56;5147123;27;20055;-65
2022/10/02 23:48:00;;;;;;;2.63;1.63;;;;;;;12.40;75.38;99267.78;5147425;27;20062;-65
2022/10/02 23:50:37;;;;;;;2.40;1.70;;;;;;;12.39;75.30;99268.75;5147288;27;20108;-65
2022/10/02 23:53:31;;;;;;;2.63;1.50;;;;;;;12.35;75.10;99272.56;5146861;27;20096;-65
2022/10/02 23:56:21;;;;;;;2.33;1.42;;;;;;;12.32;75.14;99274.56;5146835;27;20119;-65
2022/10/02 23:59:09;;;;;;;2.05;1.30;;;;;;;12.34;75.45;99270.84;5146856;27;20059;-65
